Time;durP1;ratioP1;P1;durP2;ratioP2;P2;SDS_P1;SDS_P2;PMS_P1;PMS_P2;Temp;Humidity;BMP_temperature;BMP_pressure;BME280_temperature;BME280_humidity;BME280_pressure;Samples;Min_cycle;Max_cycle;Signal;HPM_P1;HPM_P2
2020/12/27 00:01:42;;;;;;;2.88;1.58;;;5.40;91.80;;;;;;5114444;28;20122;-73
2020/12/27 00:04:08;;;;;;;2.72;1.60;;;5.50;91.80;;;;;;5114058;28;20389;-72
2020/12/27 00:06:34;;;;;;;2.33;1.73;;;5.40;91.70;;;;;;5114227;28;20477;-72
2020/12/27 00:09:00;;;;;;;3.70;2.00;;;5.40;91.70;;;;;;5094759;28;20169;-72
2020/12/27 00:11:26;;;;;;;2.83;1.75;;;5.40;91.70;;;;;;5095807;28;20043;-72
2020/12/27 00:13:51;;;;;;;2.15;1.48;;;5.40;91.70;;;;;;5114199;28;20032;-71
2020/12/27 00:16:25;;;;;;;2.45;1.67;;;5.40;91.70;;;;;;5114153;28;20034;-71
2020/12/27 00:18:51;;;;;;;1.55;1.10;;;5.40;91.70;;;;;;5114361;28;20131;-72
2020/12/27 00:21:18;;;;;;;1.42;1.15;;;5.40;91.70;;;;;;5113676;28;20044;-72
2020/12/27 00:23:43;;;;;;;2.28;1.50;;;5.40;91.70;;;;;;5113747;28;20516;-72
2020/12/27 00:26:11;;;;;;;2.70;1.58;;;5.30;91.60;;;;;;5095872;28;20115;-71
2020/12/27 00:28:37;;;;;;;2.75;1.65;;;5.40;91.60;;;;;;5113719;28;20094;-71
2020/12/27 00:31:03;;;;;;;3.97;1.52;;;5.40;91.60;;;;;;5113602;28;20032;-72
2020/12/27 00:33:29;;;;;;;2.10;1.52;;;5.40;91.60;;;;;;5113735;28;20061;-73
2020/12/27 00:35:54;;;;;;;2.47;1.50;;;5.40;91.60;;;;;;5113562;28;20094;-72
2020/12/27 00:38:20;;;;;;;2.97;1.85;;;5.50;91.60;;;;;;5113639;28;20027;-71
2020/12/27 00:40:46;;;;;;;2.58;1.60;;;5.40;91.50;;;;;;5114101;28;20409;-72
2020/12/27 00:43:11;;;;;;;2.90;1.73;;;5.40;91.50;;;;;;5095931;28;20390;-72
2020/12/27 00:45:37;;;;;;;2.13;1.52;;;5.40;91.50;;;;;;5112980;28;20039;-72
2020/12/27 00:48:03;;;;;;;3.45;1.80;;;5.50;91.40;;;;;;5095825;28;20118;-72
2020/12/27 00:50:28;;;;;;;2.33;1.48;;;5.40;91.40;;;;;;5113701;28;20044;-72
2020/12/27 00:52:54;;;;;;;2.13;1.60;;;5.40;91.40;;;;;;5114107;28;20388;-72
2020/12/27 00:55:20;;;;;;;3.50;1.45;;;5.40;91.40;;;;;;5113716;28;20050;-72
2020/12/27 00:57:46;;;;;;;1.83;1.42;;;5.40;91.40;;;;;;5113549;28;20082;-72
2020/12/27 01:00:12;;;;;;;3.22;1.80;;;5.40;91.40;;;;;;5113757;28;20051;-72
2020/12/27 01:02:37;;;;;;;3.83;1.65;;;5.40;91.40;;;;;;5113292;28;20100;-72
2020/12/27 01:05:03;;;;;;;2.70;1.73;;;5.40;91.40;;;;;;5094959;28;20043;-72
2020/12/27 01:07:29;;;;;;;3.65;1.73;;;5.30;91.30;;;;;;5113310;28;20035;-72
2020/12/27 01:09:55;;;;;;;3.35;1.50;;;5.40;91.30;;;;;;5094319;28;20401;-72
2020/12/27 01:12:21;;;;;;;1.90;1.30;;;5.50;91.30;;;;;;5113274;28;20070;-72
2020/12/27 01:14:47;;;;;;;2.03;1.33;;;5.40;91.30;;;;;;5093218;28;20521;-72
2020/12/27 01:17:12;;;;;;;2.40;1.38;;;5.30;91.30;;;;;;5113582;28;20040;-72
2020/12/27 01:19:38;;;;;;;1.52;1.30;;;5.40;91.30;;;;;;5113044;28;20471;-72
2020/12/27 01:22:04;;;;;;;2.35;1.40;;;5.40;91.20;;;;;;5113124;28;20047;-72
2020/12/27 01:24:30;;;;;;;2.03;1.23;;;5.40;91.20;;;;;;5112833;28;20081;-73
2020/12/27 01:26:55;;;;;;;2.30;1.30;;;5.40;91.20;;;;;;5112828;28;20043;-72
2020/12/27 01:29:21;;;;;;;1.77;1.25;;;5.40;91.20;;;;;;5113294;28;20042;-72
2020/12/27 01:31:47;;;;;;;2.33;1.38;;;5.30;91.20;;;;;;5112727;28;20035;-72
2020/12/27 01:34:12;;;;;;;2.25;1.38;;;5.30;91.20;;;;;;5113003;28;20031;-72
2020/12/27 01:36:40;;;;;;;3.03;1.70;;;5.30;91.20;;;;;;5113156;28;20405;-73
2020/12/27 01:39:07;;;;;;;2.55;1.70;;;5.30;91.20;;;;;;5112591;28;20571;-72
2020/12/27 01:41:34;;;;;;;2.45;1.50;;;5.30;91.20;;;;;;5112547;28;20135;-72
2020/12/27 01:44:03;;;;;;;2.72;1.80;;;5.30;91.10;;;;;;5112486;28;20173;-72
2020/12/27 01:46:33;;;;;;;3.30;1.80;;;5.20;91.10;;;;;;5112524;28;20032;-72
2020/12/27 01:48:59;;;;;;;2.92;1.63;;;5.20;91.10;;;;;;5112877;28;20075;-73
2020/12/27 01:51:24;;;;;;;2.83;1.60;;;5.20;91.10;;;;;;5113016;28;20046;-72
2020/12/27 01:53:50;;;;;;;2.60;1.63;;;5.20;91.10;;;;;;5112506;28;20048;-71
2020/12/27 01:56:20;;;;;;;2.90;1.70;;;5.20;91.10;;;;;;5112134;28;20042;-71
2020/12/27 01:58:51;;;;;;;2.40;1.40;;;5.20;91.10;;;;;;5112716;28;20494;-71
2020/12/27 02:01:17;;;;;;;2.25;1.17;;;5.20;91.10;;;;;;5112562;28;20047;-73
2020/12/27 02:03:42;;;;;;;2.60;1.42;;;5.20;91.10;;;;;;5112566;28;20035;-72
2020/12/27 02:06:08;;;;;;;3.58;1.83;;;5.20;91.00;;;;;;5112862;28;20031;-72
2020/12/27 02:08:36;;;;;;;3.65;2.08;;;5.20;91.00;;;;;;5094141;28;20036;-72
2020/12/27 02:11:03;;;;;;;2.47;1.67;;;5.20;91.00;;;;;;5112545;28;20031;-72
2020/12/27 02:13:29;;;;;;;2.60;1.50;;;5.20;91.00;;;;;;5094262;28;20434;-73
2020/12/27 02:15:55;;;;;;;2.53;1.48;;;5.20;91.00;;;;;;5112309;28;20127;-72
2020/12/27 02:18:21;;;;;;;3.63;1.60;;;5.20;91.00;;;;;;5112693;28;20109;-71
2020/12/27 02:20:46;;;;;;;4.03;1.73;;;5.20;90.90;;;;;;5112217;28;20043;-71
2020/12/27 02:23:15;;;;;;;2.65;1.55;;;5.20;90.90;;;;;;5112130;28;20465;-72
2020/12/27 02:25:41;;;;;;;2.90;1.60;;;5.20;91.00;;;;;;5112572;28;20043;-72
2020/12/27 02:28:07;;;;;;;2.75;1.48;;;5.20;91.00;;;;;;5112015;28;20050;-72
2020/12/27 02:30:33;;;;;;;2.85;1.60;;;5.20;91.00;;;;;;5112416;28;20031;-72
2020/12/27 02:32:58;;;;;;;3.20;1.85;;;5.20;91.00;;;;;;5112443;28;20118;-72
2020/12/27 02:35:24;;;;;;;2.97;1.63;;;5.20;91.00;;;;;;5111998;28;20042;-71
2020/12/27 02:37:50;;;;;;;3.20;1.95;;;5.20;91.00;;;;;;5112002;28;20040;-72
2020/12/27 02:40:16;;;;;;;2.50;1.45;;;5.20;90.90;;;;;;5093780;28;20457;-72
2020/12/27 02:42:42;;;;;;;3.22;1.77;;;5.10;90.90;;;;;;5112126;28;20114;-72
2020/12/27 02:45:10;;;;;;;3.72;1.60;;;5.00;90.90;;;;;;5112020;28;20078;-72
2020/12/27 02:47:39;;;;;;;2.90;1.50;;;5.10;90.90;;;;;;5112434;28;20085;-73
2020/12/27 02:50:14;;;;;;;2.53;1.50;;;5.10;90.90;;;;;;5111813;28;20048;-72
2020/12/27 02:52:40;;;;;;;2.85;1.60;;;5.20;90.90;;;;;;5112218;28;20051;-73
2020/12/27 02:55:07;;;;;;;2.78;1.40;;;5.20;90.90;;;;;;5111906;28;20128;-72
2020/12/27 02:57:33;;;;;;;3.88;1.60;;;5.20;90.90;;;;;;5094077;28;20048;-72
2020/12/27 02:59:58;;;;;;;3.17;1.60;;;5.20;90.80;;;;;;5111663;28;20043;-72
2020/12/27 03:02:24;;;;;;;3.17;1.83;;;5.20;90.80;;;;;;5112201;28;20457;-72
2020/12/27 03:04:50;;;;;;;4.00;2.10;;;5.10;90.80;;;;;;5111647;28;20059;-72
2020/12/27 03:07:16;;;;;;;3.53;1.88;;;5.20;90.80;;;;;;5112769;28;20039;-71
2020/12/27 03:09:42;;;;;;;3.00;1.83;;;5.20;90.80;;;;;;5115127;28;20035;-72
2020/12/27 03:12:07;;;;;;;3.00;1.75;;;5.20;90.80;;;;;;5115063;28;20431;-72
2020/12/27 03:14:33;;;;;;;3.28;1.77;;;5.20;90.80;;;;;;5115098;28;20091;-72
2020/12/27 03:16:59;;;;;;;2.65;1.48;;;5.10;90.70;;;;;;5114936;28;20399;-72
2020/12/27 03:19:25;;;;;;;3.97;1.88;;;5.20;90.70;;;;;;5096461;28;20036;-72
2020/12/27 03:21:50;;;;;;;2.88;1.80;;;5.20;90.70;;;;;;5115060;28;20046;-72
2020/12/27 03:24:16;;;;;;;2.50;1.40;;;5.10;90.70;;;;;;5115344;28;20040;-73
2020/12/27 03:26:42;;;;;;;2.33;1.55;;;5.20;90.70;;;;;;5114710;28;20042;-73
2020/12/27 03:29:07;;;;;;;2.50;1.33;;;5.10;90.70;;;;;;5114730;28;20050;-72
2020/12/27 03:31:33;;;;;;;2.17;1.33;;;5.10;90.70;;;;;;5115251;28;20123;-72
2020/12/27 03:33:59;;;;;;;3.90;1.63;;;5.20;90.80;;;;;;5115391;28;20040;-72
2020/12/27 03:36:24;;;;;;;2.60;1.63;;;5.20;90.70;;;;;;5115007;28;20047;-72
2020/12/27 03:38:52;;;;;;;3.85;1.60;;;5.10;90.70;;;;;;5096639;28;20488;-72
2020/12/27 03:41:18;;;;;;;2.72;1.50;;;5.10;90.70;;;;;;5114609;28;20108;-71
2020/12/27 03:43:45;;;;;;;2.85;1.70;;;5.10;90.70;;;;;;5114552;28;20043;-72
2020/12/27 03:46:11;;;;;;;2.47;1.50;;;5.10;90.70;;;;;;5114467;28;20117;-72
2020/12/27 03:48:36;;;;;;;2.03;1.30;;;5.10;90.70;;;;;;5114423;28;20556;-72
2020/12/27 03:51:02;;;;;;;3.03;1.75;;;5.10;90.70;;;;;;5114407;28;20038;-72
2020/12/27 03:53:28;;;;;;;2.25;1.40;;;5.20;90.70;;;;;;5114689;28;20439;-72
2020/12/27 03:55:53;;;;;;;2.17;1.42;;;5.10;90.70;;;;;;5096208;28;20094;-72
2020/12/27 03:58:19;;;;;;;2.50;1.42;;;5.10;90.70;;;;;;5114534;28;20118;-71
2020/12/27 04:00:45;;;;;;;2.00;1.42;;;5.10;90.70;;;;;;5114415;28;20487;-72
2020/12/27 04:03:10;;;;;;;2.38;1.50;;;5.10;90.70;;;;;;5114316;28;20620;-72
2020/12/27 04:05:36;;;;;;;3.45;1.42;;;5.10;90.70;;;;;;5114667;28;20075;-71
2020/12/27 04:08:02;;;;;;;2.65;1.50;;;5.10;90.70;;;;;;5114298;28;20051;-72
2020/12/27 04:10:27;;;;;;;2.50;1.40;;;5.10;90.70;;;;;;5114651;28;20047;-72
2020/12/27 04:12:53;;;;;;;2.53;1.50;;;5.00;90.60;;;;;;5114220;28;20107;-73
2020/12/27 04:15:19;;;;;;;2.85;1.50;;;5.10;90.70;;;;;;5114078;28;20047;-72
2020/12/27 04:17:44;;;;;;;4.35;1.73;;;5.20;90.70;;;;;;5114448;28;20529;-72
2020/12/27 04:20:10;;;;;;;3.58;1.77;;;5.10;90.60;;;;;;5114152;28;20046;-72
2020/12/27 04:22:36;;;;;;;3.05;1.80;;;5.10;90.60;;;;;;5114080;28;20042;-72
2020/12/27 04:25:02;;;;;;;2.67;1.67;;;5.10;90.60;;;;;;5113973;28;20035;-73
2020/12/27 04:27:27;;;;;;;3.65;1.80;;;5.10;90.60;;;;;;5095724;28;20040;-71
2020/12/27 04:29:53;;;;;;;2.38;1.40;;;5.10;90.50;;;;;;5095820;28;20039;-73
2020/12/27 04:32:19;;;;;;;2.53;1.60;;;5.20;90.60;;;;;;5114267;28;20039;-72
2020/12/27 04:34:44;;;;;;;2.22;1.23;;;5.20;90.60;;;;;;5113881;28;20051;-72
2020/12/27 04:37:10;;;;;;;3.65;1.52;;;5.30;90.60;;;;;;5113831;28;20043;-72
2020/12/27 04:39:36;;;;;;;2.55;1.40;;;5.20;90.50;;;;;;5113665;28;20130;-72
2020/12/27 04:42:02;;;;;;;1.55;1.25;;;5.20;90.50;;;;;;5113598;28;20031;-72
2020/12/27 04:44:28;;;;;;;2.70;1.30;;;5.20;90.50;;;;;;5094371;28;20032;-72
2020/12/27 04:46:54;;;;;;;1.83;1.33;;;5.20;90.50;;;;;;5095430;28;20043;-72
2020/12/27 04:49:20;;;;;;;2.13;1.30;;;5.30;90.50;;;;;;5113402;28;20039;-72
2020/12/27 04:51:48;;;;;;;2.35;1.45;;;5.30;90.50;;;;;;5114015;28;20051;-72
2020/12/27 04:54:14;;;;;;;2.17;1.30;;;5.30;90.40;;;;;;5095133;28;20043;-74
2020/12/27 04:56:42;;;;;;;3.15;1.45;;;5.30;90.40;;;;;;5113300;28;20073;-73
2020/12/27 04:59:07;;;;;;;2.03;1.38;;;5.40;90.40;;;;;;5113449;28;20118;-72
2020/12/27 05:01:33;;;;;;;2.05;1.15;;;5.40;90.30;;;;;;5113250;28;20134;-72
2020/12/27 05:03:59;;;;;;;2.25;1.30;;;5.40;90.30;;;;;;5113617;28;20039;-72
2020/12/27 05:06:26;;;;;;;1.52;1.00;;;5.40;90.30;;;;;;5113512;28;20039;-72
2020/12/27 05:08:51;;;;;;;1.48;0.98;;;5.40;90.30;;;;;;5113843;28;20051;-72
2020/12/27 05:11:18;;;;;;;1.95;1.00;;;5.40;90.30;;;;;;5078347;28;20051;-73
2020/12/27 05:13:46;;;;;;;2.03;1.00;;;5.40;90.30;;;;;;5113373;28;20039;-71
2020/12/27 05:16:15;;;;;;;0.90;0.80;;;5.40;90.40;;;;;;5113246;28;20039;-72
2020/12/27 05:18:43;;;;;;;0.93;0.80;;;5.30;90.40;;;;;;5113229;28;20035;-72
2020/12/27 05:21:09;;;;;;;2.80;1.00;;;5.30;90.40;;;;;;5113437;28;20035;-72
2020/12/27 05:23:36;;;;;;;1.25;0.80;;;5.40;90.40;;;;;;5113217;28;20415;-72
2020/12/27 05:26:05;;;;;;;1.20;0.95;;;5.40;90.40;;;;;;5113730;28;20431;-72
2020/12/27 05:28:33;;;;;;;1.35;0.90;;;5.40;90.40;;;;;;5113788;28;20067;-73
2020/12/27 05:31:09;;;;;;;1.40;0.90;;;5.30;90.40;;;;;;5112679;28;20071;-72
2020/12/27 05:33:38;;;;;;;1.48;0.80;;;5.30;90.50;;;;;;5113405;28;20523;-72
2020/12/27 05:36:03;;;;;;;0.93;0.60;;;5.40;90.50;;;;;;5113301;28;20095;-72
2020/12/27 05:38:30;;;;;;;1.13;0.80;;;5.30;90.80;;;;;;5113244;28;20035;-72
2020/12/27 05:40:55;;;;;;;0.80;0.80;;;5.30;90.50;;;;;;5113197;28;20055;-72
2020/12/27 05:43:21;;;;;;;1.13;0.80;;;5.30;90.50;;;;;;5113084;28;20031;-72
2020/12/27 05:45:47;;;;;;;1.95;0.80;;;5.30;90.80;;;;;;5113025;28;20119;-73
2020/12/27 05:48:13;;;;;;;0.60;0.60;;;5.30;90.60;;;;;;5113507;28;20040;-72
2020/12/27 05:50:41;;;;;;;0.95;0.57;;;5.30;90.60;;;;;;5112872;28;20508;-72
2020/12/27 05:53:19;;;;;;;1.08;0.65;;;5.30;90.70;;;;;;5112682;28;20058;-72
2020/12/27 05:55:48;;;;;;;0.80;0.70;;;5.30;90.70;;;;;;5113428;28;20067;-72
2020/12/27 05:58:18;;;;;;;0.47;0.47;;;5.30;90.70;;;;;;5113392;28;20077;-72
2020/12/27 06:00:47;;;;;;;1.40;0.47;;;5.20;90.70;;;;;;5094984;28;20071;-72
2020/12/27 06:03:21;;;;;;;0.52;0.43;;;5.30;90.80;;;;;;5112757;28;20405;-72
2020/12/27 06:06:11;;;;;;;0.73;0.60;;;5.20;90.80;;;;;;5112844;28;20036;-72
2020/12/27 06:09:02;;;;;;;1.13;0.45;;;5.20;90.80;;;;;;5113161;28;20039;-72
2020/12/27 06:11:47;;;;;;;0.52;0.40;;;5.20;90.80;;;;;;5113051;28;20047;-72
2020/12/27 06:14:38;;;;;;;0.38;0.38;;;5.20;90.80;;;;;;5113051;28;20039;-72
2020/12/27 06:17:11;;;;;;;1.17;0.60;;;5.30;90.80;;;;;;5097382;28;20058;-72
2020/12/27 06:19:47;;;;;;;2.15;0.50;;;5.30;90.80;;;;;;5093882;28;20396;-73
2020/12/27 06:22:25;;;;;;;1.13;0.43;;;5.30;90.80;;;;;;5095869;28;20079;-72
2020/12/27 06:24:52;;;;;;;0.40;0.30;;;5.20;90.80;;;;;;5112750;28;20063;-73
2020/12/27 06:27:18;;;;;;;1.40;0.30;;;5.30;90.80;;;;;;5112589;28;20040;-73
2020/12/27 06:29:56;;;;;;;0.30;0.30;;;5.30;90.90;;;;;;5112606;28;20035;-73
2020/12/27 06:32:25;;;;;;;0.35;0.32;;;5.30;90.90;;;;;;5093833;28;20095;-73
2020/12/27 06:34:51;;;;;;;0.38;0.35;;;5.30;91.00;;;;;;5112265;28;20040;-73
2020/12/27 06:37:17;;;;;;;0.47;0.43;;;5.30;91.00;;;;;;5112273;28;20389;-72
2020/12/27 06:39:45;;;;;;;1.10;0.40;;;5.30;91.00;;;;;;5112421;28;20044;-73
2020/12/27 06:42:13;;;;;;;0.32;0.32;;;5.30;91.00;;;;;;5112892;28;20047;-73
2020/12/27 06:44:42;;;;;;;0.40;0.40;;;5.30;91.00;;;;;;5115738;28;20468;-73
2020/12/27 06:47:09;;;;;;;0.70;0.40;;;5.20;91.00;;;;;;5115537;28;20040;-73
2020/12/27 06:49:34;;;;;;;0.95;0.50;;;5.30;91.00;;;;;;5097391;28;20050;-72
2020/12/27 06:52:19;;;;;;;0.30;0.20;;;5.30;91.10;;;;;;5115556;28;20122;-73
2020/12/27 06:54:51;;;;;;;1.05;0.30;;;5.30;91.10;;;;;;5115489;28;20051;-73
2020/12/27 06:57:48;;;;;;;0.32;0.30;;;5.30;91.10;;;;;;5097311;28;20067;-73
2020/12/27 07:00:19;;;;;;;0.45;0.20;;;5.30;91.20;;;;;;5115906;28;20530;-73
2020/12/27 07:02:45;;;;;;;1.23;0.30;;;5.30;91.20;;;;;;5115417;28;20043;-73
2020/12/27 07:05:27;;;;;;;0.30;0.30;;;5.30;91.20;;;;;;5115351;28;20081;-72
2020/12/27 07:07:53;;;;;;;0.30;0.30;;;5.30;91.20;;;;;;5115615;28;20044;-73
2020/12/27 07:10:21;;;;;;;0.20;0.20;;;5.30;91.20;;;;;;5115454;28;20042;-72
2020/12/27 07:12:47;;;;;;;0.30;0.30;;;5.40;91.20;;;;;;5115350;28;20031;-73
2020/12/27 07:15:15;;;;;;;0.25;0.20;;;5.40;91.20;;;;;;5115286;28;20122;-73
2020/12/27 07:17:42;;;;;;;0.20;0.20;;;5.40;91.30;;;;;;5115630;28;20063;-73
2020/12/27 07:20:18;;;;;;;0.35;0.25;;;5.40;91.30;;;;;;5097142;28;20481;-73
2020/12/27 07:22:44;;;;;;;0.30;0.30;;;5.40;91.30;;;;;;5115559;28;20461;-73
2020/12/27 07:25:14;;;;;;;0.40;0.28;;;5.40;91.30;;;;;;5095371;28;20398;-73
2020/12/27 07:27:41;;;;;;;0.22;0.22;;;5.50;91.30;;;;;;5115432;28;20028;-72
2020/12/27 07:30:07;;;;;;;0.50;0.30;;;5.50;91.20;;;;;;5114974;28;20077;-72
2020/12/27 07:32:42;;;;;;;0.40;0.32;;;5.50;91.30;;;;;;5115329;28;20073;-73
2020/12/27 07:35:10;;;;;;;0.32;0.32;;;5.50;91.20;;;;;;5114713;28;20554;-73
2020/12/27 07:37:36;;;;;;;0.75;0.40;;;5.50;91.20;;;;;;5115464;28;20085;-73
2020/12/27 07:40:04;;;;;;;0.38;0.22;;;5.50;91.20;;;;;;5114593;28;20429;-73
2020/12/27 07:42:32;;;;;;;0.63;0.28;;;5.60;91.20;;;;;;5114797;28;20040;-73
2020/12/27 07:45:00;;;;;;;0.98;0.40;;;5.60;91.30;;;;;;5114562;28;20047;-73
2020/12/27 07:47:28;;;;;;;0.30;0.28;;;5.60;91.20;;;;;;5096390;28;20397;-73
2020/12/27 07:50:10;;;;;;;0.25;0.25;;;5.60;91.20;;;;;;5114884;28;20093;-73
2020/12/27 07:52:57;;;;;;;0.35;0.20;;;5.60;91.20;;;;;;5114945;28;20474;-72
2020/12/27 07:55:28;;;;;;;0.20;0.20;;;5.70;91.30;;;;;;5114573;28;20106;-73
2020/12/27 07:57:55;;;;;;;0.30;0.30;;;5.60;91.20;;;;;;5114610;28;20501;-72
2020/12/27 08:00:23;;;;;;;0.22;0.20;;;5.70;91.30;;;;;;5114232;28;20040;-73
2020/12/27 08:02:50;;;;;;;0.20;0.20;;;5.70;91.20;;;;;;5096033;28;20067;-72
2020/12/27 08:05:16;;;;;;;0.45;0.20;;;5.70;91.20;;;;;;5114309;28;20085;-73
2020/12/27 08:07:42;;;;;;;0.20;0.20;;;5.70;91.20;;;;;;5114186;28;20042;-72
2020/12/27 08:10:17;;;;;;;0.35;0.25;;;5.70;91.10;;;;;;5114875;28;20396;-72
2020/12/27 08:12:48;;;;;;;0.30;0.25;;;5.80;91.10;;;;;;5096421;28;20043;-72
2020/12/27 08:15:14;;;;;;;0.33;0.27;;;5.80;91.20;;;;;;5114511;28;20035;-72
2020/12/27 08:17:51;;;;;;;0.20;0.20;;;5.80;91.10;;;;;;5095940;28;20284;-72
2020/12/27 08:20:17;;;;;;;0.10;0.10;;;5.80;91.20;;;;;;5114107;28;20048;-72
2020/12/27 08:22:42;;;;;;;0.30;0.30;;;5.80;91.10;;;;;;5095939;28;20051;-72
2020/12/27 08:25:12;;;;;;;1.30;0.40;;;5.80;91.10;;;;;;5079057;28;20049;-73
2020/12/27 08:27:38;;;;;;;0.10;0.10;;;5.90;91.10;;;;;;5095766;28;20048;-72
2020/12/27 08:30:05;;;;;;;0.20;0.20;;;5.80;91.00;;;;;;5113916;28;20126;-72
2020/12/27 08:32:31;;;;;;;0.28;0.28;;;5.90;91.00;;;;;;5113974;28;20557;-72
2020/12/27 08:34:56;;;;;;;0.20;0.20;;;5.90;91.00;;;;;;5113946;28;20071;-72
2020/12/27 08:37:28;;;;;;;0.25;0.20;;;5.90;91.00;;;;;;5114304;28;20128;-72
2020/12/27 08:39:55;;;;;;;;;;;6.00;91.00;;;;;;5114155;28;20039;-72
2020/12/27 08:42:39;;;;;;;0.60;0.20;;;6.00;91.00;;;;;;5113757;28;19911;-72
2020/12/27 08:45:15;;;;;;;0.20;0.20;;;6.00;90.90;;;;;;5113906;28;20047;-73
2020/12/27 08:47:58;;;;;;;0.22;0.22;;;6.00;90.90;;;;;;5113850;28;20508;-72
2020/12/27 08:50:26;;;;;;;0.20;0.20;;;6.10;90.90;;;;;;5114197;28;20036;-72
2020/12/27 08:52:56;;;;;;;0.10;0.10;;;6.10;90.90;;;;;;5113791;28;20047;-72
2020/12/27 08:55:26;;;;;;;0.20;0.20;;;6.10;90.90;;;;;;5113864;28;20050;-72
2020/12/27 08:57:52;;;;;;;0.38;0.30;;;6.10;90.90;;;;;;5113697;28;20088;-72
2020/12/27 09:00:19;;;;;;;0.30;0.30;;;6.10;90.90;;;;;;5113419;28;20504;-72
2020/12/27 09:02:56;;;;;;;0.20;0.20;;;6.10;90.90;;;;;;5095538;28;20039;-72
2020/12/27 09:05:25;;;;;;;0.17;0.17;;;6.00;90.90;;;;;;5113041;28;20100;-72
2020/12/27 09:07:51;;;;;;;0.40;0.40;;;6.00;90.90;;;;;;5113811;28;20038;-72
2020/12/27 09:10:21;;;;;;;0.20;0.20;;;6.00;91.00;;;;;;5113513;28;20040;-73
2020/12/27 09:13:07;;;;;;;0.47;0.30;;;6.00;91.00;;;;;;5093318;28;20046;-73
2020/12/27 09:15:37;;;;;;;0.22;0.20;;;5.90;91.00;;;;;;5113417;28;20039;-73
2020/12/27 09:18:06;;;;;;;0.20;0.20;;;6.00;91.00;;;;;;5093718;28;20382;-73
2020/12/27 09:20:34;;;;;;;0.20;0.20;;;6.00;91.00;;;;;;5113392;28;20051;-73
2020/12/27 09:23:01;;;;;;;0.25;0.25;;;6.00;91.00;;;;;;5113171;28;20520;-72
2020/12/27 09:25:27;;;;;;;0.32;0.20;;;6.00;91.00;;;;;;5113563;28;20088;-72
2020/12/27 09:27:54;;;;;;;0.10;0.10;;;6.00;91.00;;;;;;5113147;28;20408;-73
2020/12/27 09:30:24;;;;;;;0.25;0.25;;;6.00;91.00;;;;;;5113704;28;20045;-72
2020/12/27 09:32:57;;;;;;;0.30;0.20;;;6.00;91.00;;;;;;5113117;28;20122;-73
2020/12/27 09:35:23;;;;;;;0.40;0.20;;;6.00;91.00;;;;;;5096126;28;20164;-73
2020/12/27 09:37:49;;;;;;;0.30;0.20;;;6.00;91.00;;;;;;5092958;28;20138;-72
2020/12/27 09:40:18;;;;;;;0.20;0.20;;;6.10;91.10;;;;;;5113261;28;20084;-72
2020/12/27 09:42:45;;;;;;;0.25;0.20;;;6.10;91.10;;;;;;5113352;28;20050;-70
2020/12/27 09:45:21;;;;;;;0.10;0.10;;;6.10;91.10;;;;;;5113000;28;20031;-70
2020/12/27 09:47:56;;;;;;;0.20;0.20;;;6.10;91.10;;;;;;5113266;28;20036;-71
2020/12/27 09:50:37;;;;;;;0.10;0.10;;;6.10;91.10;;;;;;5113313;28;20554;-70
2020/12/27 09:53:05;;;;;;;0.13;0.13;;;6.10;91.00;;;;;;5113276;28;20393;-72
2020/12/27 09:55:32;;;;;;;2.22;0.30;;;6.20;91.10;;;;;;5113233;28;20051;-73
2020/12/27 09:57:58;;;;;;;0.43;0.30;;;6.20;91.00;;;;;;5112840;28;20515;-73
2020/12/27 10:00:24;;;;;;;0.28;0.28;;;6.20;91.00;;;;;;5112667;28;20040;-72
2020/12/27 10:02:50;;;;;;;0.25;0.25;;;6.20;91.00;;;;;;5112989;28;20036;-73
2020/12/27 10:05:16;;;;;;;0.30;0.30;;;6.00;91.00;;;;;;5112711;28;20047;-72
2020/12/27 10:07:42;;;;;;;0.20;0.20;;;6.20;91.10;;;;;;5112615;28;20047;-72
2020/12/27 10:10:11;;;;;;;0.20;0.20;;;6.10;91.10;;;;;;5112672;28;20039;-72
2020/12/27 10:12:36;;;;;;;0.22;0.22;;;6.10;91.10;;;;;;5112814;28;20035;-72
2020/12/27 10:15:05;;;;;;;0.20;0.20;;;6.10;91.10;;;;;;5112656;28;20404;-73
2020/12/27 10:17:30;;;;;;;0.30;0.20;;;6.10;91.20;;;;;;5114833;28;20049;-73
2020/12/27 10:19:58;;;;;;;0.40;0.40;;;6.10;91.10;;;;;;5116273;28;20477;-73
2020/12/27 10:22:25;;;;;;;0.35;0.20;;;6.10;91.20;;;;;;5116214;28;20035;-72
2020/12/27 10:24:50;;;;;;;0.75;0.25;;;6.10;91.20;;;;;;5116198;28;20460;-73
2020/12/27 10:27:16;;;;;;;0.45;0.35;;;6.10;91.20;;;;;;5116714;28;20059;-73
2020/12/27 10:29:42;;;;;;;0.20;0.20;;;6.00;91.20;;;;;;5117270;28;20440;-74
2020/12/27 10:32:08;;;;;;;0.22;0.22;;;6.00;91.20;;;;;;5097825;28;20046;-72
2020/12/27 10:34:35;;;;;;;1.00;0.20;;;6.10;91.30;;;;;;5116633;28;20062;-70
2020/12/27 10:37:03;;;;;;;0.38;0.30;;;6.00;91.30;;;;;;5116522;28;20432;-70
2020/12/27 10:39:29;;;;;;;0.47;0.30;;;6.10;91.30;;;;;;5116536;28;20389;-71
2020/12/27 10:41:56;;;;;;;0.50;0.30;;;6.00;91.20;;;;;;5116016;28;20040;-71
2020/12/27 10:44:23;;;;;;;0.20;0.20;;;6.10;91.30;;;;;;5115631;28;20110;-72
2020/12/27 10:46:50;;;;;;;1.95;0.30;;;6.10;91.30;;;;;;5116137;28;20047;-73
2020/12/27 10:49:17;;;;;;;0.25;0.25;;;6.10;91.30;;;;;;5116149;28;20035;-72
2020/12/27 10:51:44;;;;;;;0.30;0.30;;;6.00;91.20;;;;;;5097273;28;20443;-72
2020/12/27 10:54:11;;;;;;;0.30;0.30;;;6.20;91.30;;;;;;5115511;28;20393;-73
2020/12/27 10:56:39;;;;;;;0.30;0.30;;;6.10;91.20;;;;;;5116051;28;20074;-73
2020/12/27 10:59:05;;;;;;;0.40;0.40;;;6.20;91.10;;;;;;5115426;28;20515;-73
2020/12/27 11:01:31;;;;;;;0.30;0.30;;;6.20;91.10;;;;;;5115459;28;20088;-73
2020/12/27 11:03:57;;;;;;;0.20;0.20;;;6.20;91.10;;;;;;5115564;28;20035;-72
2020/12/27 11:06:35;;;;;;;0.32;0.20;;;6.20;91.10;;;;;;5115915;28;20118;-72
2020/12/27 11:09:01;;;;;;;0.55;0.22;;;6.20;91.10;;;;;;5115399;28;20063;-72
2020/12/27 11:11:27;;;;;;;0.10;0.10;;;6.20;91.10;;;;;;5115349;28;20466;-73
2020/12/27 11:13:53;;;;;;;0.75;0.20;;;6.20;91.10;;;;;;5115291;28;20055;-74
2020/12/27 11:16:18;;;;;;;0.20;0.20;;;6.20;91.20;;;;;;5096059;28;20093;-73
2020/12/27 11:18:44;;;;;;;0.52;0.25;;;6.20;91.10;;;;;;5115840;28;20071;-72
2020/12/27 11:21:10;;;;;;;0.30;0.30;;;6.20;91.10;;;;;;5115335;28;20438;-73
2020/12/27 11:23:36;;;;;;;0.20;0.20;;;6.30;91.10;;;;;;5115205;28;20031;-73
2020/12/27 11:26:02;;;;;;;0.20;0.17;;;6.40;91.10;;;;;;5115527;28;20043;-72
2020/12/27 11:28:27;;;;;;;0.20;0.20;;;6.30;91.10;;;;;;5114608;28;20397;-73
2020/12/27 11:30:53;;;;;;;0.20;0.20;;;6.30;91.10;;;;;;5114889;28;20050;-73
2020/12/27 11:33:19;;;;;;;0.25;0.25;;;6.30;91.00;;;;;;5095364;28;20040;-73
2020/12/27 11:35:44;;;;;;;0.20;0.20;;;6.30;91.00;;;;;;5115344;28;20065;-73
2020/12/27 11:38:10;;;;;;;0.13;0.13;;;6.40;91.00;;;;;;5115083;28;20047;-73
2020/12/27 11:40:36;;;;;;;0.25;0.25;;;6.30;91.00;;;;;;5114940;28;20047;-72
2020/12/27 11:43:02;;;;;;;1.90;0.30;;;6.40;91.00;;;;;;5095061;28;20043;-74
2020/12/27 11:45:27;;;;;;;0.20;0.20;;;6.30;91.20;;;;;;5096897;28;20119;-73
2020/12/27 11:47:53;;;;;;;1.00;0.32;;;6.30;90.80;;;;;;5096646;28;20436;-73
2020/12/27 11:50:19;;;;;;;0.32;0.30;;;6.50;90.80;;;;;;5115436;28;20043;-72
2020/12/27 11:52:44;;;;;;;0.20;0.20;;;6.50;90.80;;;;;;5114663;28;20051;-73
2020/12/27 11:55:10;;;;;;;0.30;0.30;;;6.50;90.80;;;;;;5115022;28;20511;-73
2020/12/27 11:57:36;;;;;;;1.27;0.22;;;6.50;90.70;;;;;;5115156;28;20039;-73
2020/12/27 12:00:04;;;;;;;0.17;0.17;;;6.60;90.70;;;;;;5115245;28;20050;-73
2020/12/27 12:02:30;;;;;;;0.22;0.20;;;6.50;90.70;;;;;;5114944;28;20028;-72
2020/12/27 12:04:56;;;;;;;0.20;0.20;;;6.50;90.70;;;;;;5115597;28;20054;-71
2020/12/27 12:07:22;;;;;;;0.10;0.10;;;6.60;90.80;;;;;;5114933;28;20046;-73
2020/12/27 12:09:48;;;;;;;0.30;0.30;;;6.60;90.70;;;;;;5096853;28;20039;-74
2020/12/27 12:12:13;;;;;;;0.13;0.13;;;6.60;90.70;;;;;;5115764;28;20401;-73
2020/12/27 12:14:40;;;;;;;0.20;0.20;;;6.60;90.60;;;;;;5114550;28;20070;-71
2020/12/27 12:17:06;;;;;;;0.20;0.20;;;6.60;90.60;;;;;;5114383;28;20031;-71
2020/12/27 12:19:31;;;;;;;0.20;0.20;;;6.60;90.60;;;;;;5096897;28;20436;-71
2020/12/27 12:21:57;;;;;;;0.43;0.20;;;6.60;90.60;;;;;;5114464;28;20543;-73
2020/12/27 12:24:23;;;;;;;0.20;0.20;;;6.60;90.60;;;;;;5114577;28;20524;-72
2020/12/27 12:26:49;;;;;;;0.25;0.20;;;6.60;90.60;;;;;;5096482;28;20047;-72
2020/12/27 12:29:15;;;;;;;0.20;0.20;;;6.60;90.60;;;;;;5114280;28;20044;-72
2020/12/27 12:31:41;;;;;;;0.20;0.20;;;6.50;90.60;;;;;;5096086;28;20040;-72
2020/12/27 12:34:07;;;;;;;0.10;0.10;;;6.60;90.60;;;;;;5096004;28;20118;-73
2020/12/27 12:36:34;;;;;;;0.30;0.20;;;6.60;90.50;;;;;;5114327;28;20043;-72
2020/12/27 12:39:02;;;;;;;0.57;0.30;;;6.60;90.50;;;;;;5113917;28;20043;-72
2020/12/27 12:41:30;;;;;;;0.20;0.10;;;6.60;90.50;;;;;;5112813;28;20513;-73
2020/12/27 12:43:59;;;;;;;0.40;0.40;;;6.60;90.40;;;;;;5114558;28;20536;-72
2020/12/27 12:46:25;;;;;;;0.13;0.13;;;6.60;90.40;;;;;;5114432;28;20051;-73
2020/12/27 12:48:53;;;;;;;0.47;0.20;;;6.60;90.40;;;;;;5095746;28;20047;-72
2020/12/27 12:51:19;;;;;;;0.20;0.20;;;6.80;90.40;;;;;;5113628;28;20044;-73
2020/12/27 12:53:45;;;;;;;0.10;0.10;;;6.70;90.40;;;;;;5113753;28;20045;-73
2020/12/27 12:56:11;;;;;;;0.17;0.17;;;6.70;90.30;;;;;;5114293;28;20047;-72
2020/12/27 12:58:37;;;;;;;0.25;0.15;;;6.70;90.40;;;;;;5113484;28;20130;-72
2020/12/27 13:01:05;;;;;;;0.10;0.10;;;6.70;90.40;;;;;;5113710;28;20073;-72